createdAt,value
2023-05-05T00:00:23.243Z,4.00
2023-05-05T00:03:25.865Z,4.85
2023-05-05T00:06:31.475Z,4.75
2023-05-05T00:09:33.472Z,4.00
2023-05-05T00:12:36.417Z,3.93
2023-05-05T00:15:38.525Z,4.60
2023-05-05T00:18:40.694Z,4.13
2023-05-05T00:21:42.710Z,4.50
2023-05-05T00:24:44.771Z,4.70
2023-05-05T00:27:46.774Z,4.57
2023-05-05T00:30:48.850Z,6.00
2023-05-05T00:33:50.997Z,5.90
2023-05-05T00:36:53.486Z,5.40
2023-05-05T00:39:55.612Z,5.05
2023-05-05T00:42:59.614Z,4.30
2023-05-05T00:46:04.111Z,4.53
2023-05-05T00:49:06.773Z,4.57
2023-05-05T00:52:09.145Z,5.57
2023-05-05T00:55:11.181Z,6.50
2023-05-05T00:58:13.696Z,5.60
2023-05-05T01:01:16.591Z,5.43
2023-05-05T01:04:19.511Z,6.18
2023-05-05T01:07:22.336Z,5.27
2023-05-05T01:10:37.044Z,6.72
2023-05-05T01:13:53.398Z,6.53
2023-05-05T01:17:00.079Z,5.28
2023-05-05T01:20:05.192Z,5.03
2023-05-05T01:23:08.574Z,5.72
2023-05-05T01:26:22.129Z,6.40
2023-05-05T01:29:30.364Z,5.93
2023-05-05T01:32:35.839Z,6.80
2023-05-05T01:35:41.767Z,6.13
2023-05-05T01:38:45.166Z,5.50
2023-05-05T01:41:48.054Z,5.68
2023-05-05T01:44:51.699Z,5.70
2023-05-05T01:47:54.661Z,5.72
2023-05-05T01:50:57.027Z,4.97
2023-05-05T01:54:00.638Z,6.22
2023-05-05T01:57:05.988Z,5.63
2023-05-05T02:00:09.828Z,5.13
2023-05-05T02:03:21.893Z,5.65
2023-05-05T02:06:24.610Z,5.30
2023-05-05T02:09:28.389Z,6.03
2023-05-05T02:12:31.661Z,6.28
2023-05-05T02:15:35.332Z,5.57
2023-05-05T02:18:37.610Z,5.10
2023-05-05T02:21:40.109Z,4.90
2023-05-05T02:24:42.387Z,6.78
2023-05-05T02:27:46.425Z,4.93
2023-05-05T02:30:56.179Z,6.33
2023-05-05T02:33:59.678Z,6.00
2023-05-05T02:37:05.374Z,6.80
2023-05-05T02:40:11.226Z,7.03
2023-05-05T02:43:16.915Z,6.53
2023-05-05T02:46:19.399Z,6.45
2023-05-05T02:49:23.045Z,5.93
2023-05-05T02:52:25.421Z,6.57
2023-05-05T02:55:33.601Z,6.70
2023-05-05T02:59:15.947Z,6.53
2023-05-05T03:02:24.748Z,6.40
2023-05-05T03:05:30.333Z,6.30
2023-05-05T03:08:43.624Z,7.17
2023-05-05T03:11:49.768Z,6.85
2023-05-05T03:14:54.322Z,6.05
2023-05-05T03:17:56.805Z,7.60
2023-05-05T03:20:59.216Z,6.63
2023-05-05T03:24:10.794Z,6.72
2023-05-05T03:27:12.829Z,6.80
2023-05-05T03:30:15.331Z,7.03
2023-05-05T03:33:23.238Z,7.03
2023-05-05T03:36:27.791Z,8.80
2023-05-05T03:39:31.703Z,6.93
2023-05-05T03:42:34.369Z,8.40
2023-05-05T03:45:36.449Z,7.60
2023-05-05T03:48:39.884Z,7.40
2023-05-05T03:51:42.260Z,7.40
2023-05-05T03:54:46.194Z,6.10
2023-05-05T03:57:48.271Z,8.20
2023-05-05T04:00:50.338Z,7.32
2023-05-05T04:03:54.380Z,8.40
2023-05-05T04:06:56.586Z,7.28
2023-05-05T04:09:59.573Z,7.93
2023-05-05T04:13:02.102Z,7.05
2023-05-05T04:16:06.274Z,7.80
2023-05-05T04:19:08.589Z,6.93
2023-05-05T04:22:11.509Z,7.75
2023-05-05T04:25:13.659Z,7.53
2023-05-05T04:28:15.936Z,7.83
2023-05-05T04:31:17.995Z,8.05
2023-05-05T04:34:22.422Z,7.53
2023-05-05T04:37:25.976Z,7.22
2023-05-05T04:40:28.281Z,6.37
2023-05-05T04:43:32.227Z,6.90
2023-05-05T04:46:35.036Z,5.43
2023-05-05T04:49:37.188Z,5.72
2023-05-05T04:52:39.422Z,5.70
2023-05-05T04:55:41.745Z,5.83
2023-05-05T04:58:43.769Z,6.38
2023-05-05T05:01:46.131Z,6.13
2023-05-05T05:04:48.237Z,5.78
2023-05-05T05:07:50.767Z,6.07
2023-05-05T05:10:52.980Z,6.20
2023-05-05T05:13:55.023Z,6.05
2023-05-05T05:16:57.112Z,6.07
2023-05-05T05:20:04.766Z,6.60
2023-05-05T05:23:08.424Z,5.95
2023-05-05T05:26:16.732Z,7.00
2023-05-05T05:29:20.557Z,5.40
2023-05-05T05:32:23.811Z,4.43
2023-05-05T05:35:25.906Z,5.45
2023-05-05T05:38:28.250Z,5.18
2023-05-05T05:41:33.779Z,5.90
2023-05-05T05:44:36.637Z,6.00
2023-05-05T05:47:39.323Z,5.18
2023-05-05T05:50:41.700Z,4.85
2023-05-05T05:53:44.237Z,5.30
2023-05-05T05:56:46.769Z,5.47
2023-05-05T05:59:48.992Z,4.90
2023-05-05T06:02:51.741Z,4.18
2023-05-05T06:05:57.102Z,5.47
2023-05-05T06:08:59.691Z,4.72
2023-05-05T06:12:03.787Z,5.82
2023-05-05T06:15:06.883Z,4.70
2023-05-05T06:18:09.729Z,5.28
2023-05-05T06:21:13.397Z,5.63
2023-05-05T06:24:16.196Z,5.18
2023-05-05T06:27:18.330Z,5.57
2023-05-05T06:30:20.468Z,4.40
2023-05-05T06:33:22.521Z,4.70
2023-05-05T06:36:25.084Z,4.35
2023-05-05T06:39:27.305Z,4.32
2023-05-05T06:42:30.960Z,4.75
2023-05-05T06:45:34.109Z,5.53
2023-05-05T06:48:36.459Z,5.32
2023-05-05T06:51:40.499Z,5.30
2023-05-05T06:54:43.923Z,5.25
2023-05-05T06:57:46.250Z,5.30
2023-05-05T07:00:48.370Z,4.60
2023-05-05T07:03:51.145Z,5.20
2023-05-05T07:06:55.354Z,5.15
2023-05-05T07:09:57.878Z,4.85
2023-05-05T07:13:00.035Z,5.38
2023-05-05T07:16:02.301Z,5.17
2023-05-05T07:19:07.157Z,4.57
2023-05-05T07:22:09.254Z,4.55
2023-05-05T07:25:12.109Z,4.00
2023-05-05T07:28:14.261Z,4.75
2023-05-05T07:31:16.398Z,4.60
2023-05-05T07:34:18.478Z,4.95
2023-05-05T07:37:20.597Z,5.07
2023-05-05T07:40:23.052Z,5.38
2023-05-05T07:43:26.488Z,4.65
2023-05-05T07:46:28.923Z,4.63
2023-05-05T07:49:31.390Z,4.50
2023-05-05T07:52:45.381Z,4.70
2023-05-05T07:55:50.583Z,4.25
2023-05-05T07:58:52.738Z,4.75
2023-05-05T08:01:55.119Z,4.40
2023-05-05T08:04:57.641Z,4.60
2023-05-05T08:07:59.973Z,5.63
2023-05-05T08:11:02.201Z,4.72
2023-05-05T08:14:04.277Z,6.10
2023-05-05T08:17:06.936Z,5.20
2023-05-05T08:20:12.327Z,5.00
2023-05-05T08:23:14.413Z,4.50
2023-05-05T08:26:16.711Z,5.15
2023-05-05T08:29:18.854Z,5.53
2023-05-05T08:32:21.067Z,5.10
2023-05-05T08:35:23.843Z,5.22
2023-05-05T08:38:25.929Z,4.90
2023-05-05T08:41:28.445Z,5.85
2023-05-05T08:44:30.779Z,5.05
2023-05-05T08:47:33.205Z,4.97
2023-05-05T08:50:36.267Z,4.55
2023-05-05T08:53:47.906Z,5.50
2023-05-05T08:56:50.910Z,5.57
2023-05-05T08:59:53.646Z,5.65
2023-05-05T09:02:59.401Z,6.40
2023-05-05T09:06:01.845Z,5.90
2023-05-05T09:09:05.184Z,5.30
2023-05-05T09:12:07.903Z,5.53
2023-05-05T09:15:14.349Z,5.15
2023-05-05T09:18:16.829Z,5.10
2023-05-05T09:21:20.898Z,5.38
2023-05-05T09:24:23.400Z,4.88
2023-05-05T09:27:25.781Z,4.93
2023-05-05T09:30:28.241Z,5.50
2023-05-05T09:33:33.905Z,4.97
2023-05-05T09:36:47.975Z,4.97
2023-05-05T09:39:56.993Z,5.22
2023-05-05T09:43:02.585Z,4.90
2023-05-05T09:46:08.741Z,5.65
2023-05-05T09:49:18.561Z,4.70
2023-05-05T09:52:21.373Z,5.13
2023-05-05T09:55:24.554Z,4.40
2023-05-05T09:58:29.434Z,5.50
2023-05-05T10:01:32.375Z,4.78
2023-05-05T10:04:34.977Z,4.63
2023-05-05T10:07:38.405Z,4.95
2023-05-05T10:10:48.024Z,5.25
2023-05-05T10:13:50.540Z,5.47
2023-05-05T10:16:54.082Z,5.25
2023-05-05T10:19:57.829Z,4.43
2023-05-05T10:23:01.738Z,4.20
2023-05-05T10:26:06.447Z,4.30
2023-05-05T10:29:14.032Z,4.10
2023-05-05T10:32:53.972Z,4.40
2023-05-05T10:35:53.440Z,3.60
2023-05-05T10:38:59.403Z,5.70
2023-05-05T10:42:05.159Z,4.13
2023-05-05T10:45:08.197Z,4.13
2023-05-05T10:48:14.929Z,4.38
2023-05-05T10:51:40.529Z,4.67
2023-05-05T10:54:46.308Z,6.72
2023-05-05T10:57:52.615Z,4.35
2023-05-05T11:00:55.221Z,5.45
2023-05-05T11:04:19.901Z,4.72
2023-05-05T11:07:23.844Z,4.30
2023-05-05T11:10:26.678Z,3.65
2023-05-05T11:13:29.705Z,4.72
2023-05-05T11:16:58.529Z,5.28
2023-05-05T11:20:01.364Z,4.53
2023-05-05T11:23:03.963Z,4.13
2023-05-05T11:26:06.689Z,4.05
2023-05-05T11:29:09.133Z,3.90
2023-05-05T11:32:14.802Z,3.90
2023-05-05T11:35:17.304Z,3.75
2023-05-05T11:38:21.361Z,4.87
2023-05-05T11:41:32.831Z,5.30
2023-05-05T11:44:36.121Z,5.72
2023-05-05T11:47:38.951Z,5.20
2023-05-05T11:50:42.114Z,3.35
2023-05-05T11:53:45.495Z,3.73
2023-05-05T11:56:51.552Z,3.55
2023-05-05T11:59:55.272Z,4.45
2023-05-05T12:02:58.388Z,4.30
2023-05-05T12:06:00.926Z,3.53
2023-05-05T12:09:04.373Z,3.60
2023-05-05T12:12:07.617Z,3.38
2023-05-05T12:15:10.018Z,4.47
2023-05-05T12:18:19.004Z,4.00
2023-05-05T12:21:21.992Z,4.05
2023-05-05T12:24:24.237Z,3.77
2023-05-05T12:27:27.165Z,3.40
2023-05-05T12:30:29.296Z,3.33
2023-05-05T12:33:38.401Z,3.50
2023-05-05T12:36:40.761Z,3.88
2023-05-05T12:39:42.747Z,4.23
2023-05-05T12:42:46.340Z,3.30
2023-05-05T12:45:49.569Z,3.72
2023-05-05T12:49:01.610Z,3.40
2023-05-05T12:52:04.089Z,3.45
2023-05-05T12:55:06.389Z,4.07
2023-05-05T12:58:08.498Z,3.55
2023-05-05T13:01:11.022Z,3.78
2023-05-05T13:04:14.023Z,3.15
2023-05-05T13:07:16.881Z,3.35
2023-05-05T13:10:19.036Z,3.20
2023-05-05T13:13:21.099Z,4.18
2023-05-05T13:16:23.204Z,4.50
2023-05-05T13:19:25.448Z,3.97
2023-05-05T13:22:27.535Z,3.38
2023-05-05T13:25:29.619Z,3.20
2023-05-05T13:28:31.818Z,3.30
2023-05-05T13:31:33.867Z,3.80
2023-05-05T13:34:35.983Z,3.20
2023-05-05T13:37:38.041Z,3.40
2023-05-05T13:40:40.046Z,3.13
2023-05-05T13:43:42.070Z,3.35
2023-05-05T13:46:44.170Z,3.53
2023-05-05T13:49:46.260Z,2.95
2023-05-05T13:52:48.332Z,3.08
2023-05-05T13:55:50.632Z,3.47
2023-05-05T13:58:52.670Z,2.80
2023-05-05T14:01:54.737Z,3.78
2023-05-05T14:04:56.749Z,3.40
2023-05-05T14:07:59.739Z,3.20
2023-05-05T14:11:03.284Z,2.70
2023-05-05T14:14:06.223Z,3.67
2023-05-05T14:17:08.319Z,3.47
2023-05-05T14:20:10.744Z,3.97
2023-05-05T14:23:12.796Z,3.38
2023-05-05T14:26:15.954Z,3.40
2023-05-05T14:29:17.993Z,3.75
2023-05-05T14:32:20.207Z,3.97
2023-05-05T14:35:22.444Z,3.05
2023-05-05T14:38:24.682Z,3.20
2023-05-05T14:41:27.154Z,3.27
2023-05-05T14:44:29.181Z,3.58
2023-05-05T14:47:31.398Z,2.85
2023-05-05T14:50:34.104Z,2.92
2023-05-05T14:53:36.360Z,3.90
2023-05-05T14:56:38.626Z,3.90
2023-05-05T14:59:43.383Z,3.67
2023-05-05T15:02:45.575Z,3.22
2023-05-05T15:05:47.812Z,3.55
2023-05-05T15:08:50.263Z,3.60
2023-05-05T15:11:52.272Z,3.87
2023-05-05T15:14:55.766Z,4.10
2023-05-05T15:17:57.917Z,4.05
2023-05-05T15:21:00.057Z,3.85
2023-05-05T15:24:02.286Z,3.80
2023-05-05T15:27:04.737Z,3.40
2023-05-05T15:30:07.315Z,5.28
2023-05-05T15:33:09.343Z,3.70
2023-05-05T15:36:11.835Z,3.17
2023-05-05T15:39:14.129Z,3.58
2023-05-05T15:42:16.296Z,2.80
2023-05-05T15:45:18.683Z,3.20
2023-05-05T15:48:20.981Z,3.42
2023-05-05T15:51:23.030Z,3.70
2023-05-05T15:54:25.573Z,3.42
2023-05-05T15:57:27.946Z,2.90
2023-05-05T16:04:07.468Z,3.10
2023-05-05T16:07:11.489Z,3.00
2023-05-05T16:10:14.674Z,3.45
2023-05-05T16:13:16.946Z,3.20
2023-05-05T16:16:19.512Z,3.05
2023-05-05T16:19:24.332Z,3.10
2023-05-05T16:22:27.231Z,3.90
2023-05-05T16:25:29.390Z,3.22
2023-05-05T16:28:31.584Z,2.87
2023-05-05T16:31:34.111Z,3.58
2023-05-05T16:34:36.261Z,4.28
2023-05-05T16:37:38.509Z,4.10
2023-05-05T16:40:40.814Z,3.42
2023-05-05T16:43:42.913Z,4.27
2023-05-05T16:46:45.087Z,3.25
2023-05-05T16:49:47.290Z,3.47
2023-05-05T16:52:49.679Z,3.72
2023-05-05T16:55:52.682Z,3.10
2023-05-05T16:58:54.694Z,3.30
2023-05-05T17:01:57.857Z,3.17
2023-05-05T17:04:59.943Z,4.00
2023-05-05T17:08:03.182Z,3.28
2023-05-05T17:11:05.344Z,3.00
2023-05-05T17:14:07.465Z,2.77
2023-05-05T17:17:09.617Z,3.15
2023-05-05T17:20:12.174Z,3.15
2023-05-05T17:23:14.146Z,3.40
2023-05-05T17:26:16.137Z,3.10
2023-05-05T17:29:23.095Z,3.17
2023-05-05T17:32:25.252Z,3.17
2023-05-05T17:35:27.362Z,2.97
2023-05-05T17:38:29.465Z,3.67
2023-05-05T17:41:31.617Z,3.17
2023-05-05T17:44:33.681Z,3.83
2023-05-05T17:47:36.253Z,3.33
2023-05-05T17:50:38.645Z,3.45
2023-05-05T17:53:40.610Z,3.08
2023-05-05T17:56:42.681Z,3.30
2023-05-05T17:59:45.084Z,4.10
2023-05-05T18:02:47.281Z,4.18
2023-05-05T18:05:49.517Z,3.75
2023-05-05T18:08:51.560Z,3.78
2023-05-05T18:11:53.992Z,5.00
2023-05-05T18:14:56.039Z,9.13
2023-05-05T18:17:58.165Z,10.95
2023-05-05T18:21:00.314Z,9.63
2023-05-05T18:24:15.740Z,7.95
2023-05-05T18:27:21.867Z,6.57
2023-05-05T18:30:23.988Z,6.43
2023-05-05T18:33:26.654Z,6.50
2023-05-05T18:36:28.658Z,5.97
2023-05-05T18:39:30.710Z,7.03
2023-05-05T18:42:32.730Z,9.27
2023-05-05T18:45:34.793Z,8.43
2023-05-05T18:48:37.051Z,9.93
2023-05-05T18:51:39.400Z,11.85
2023-05-05T18:54:41.667Z,9.05
2023-05-05T18:57:43.755Z,8.20
2023-05-05T19:00:45.919Z,8.77
2023-05-05T19:03:48.213Z,7.75
2023-05-05T19:06:52.438Z,7.57
2023-05-05T19:09:54.739Z,6.53
2023-05-05T19:12:57.143Z,6.75
2023-05-05T19:15:59.391Z,6.87
2023-05-05T19:19:01.458Z,5.88
2023-05-05T19:22:03.790Z,6.05
2023-05-05T19:25:06.027Z,5.90
2023-05-05T19:28:08.087Z,5.80
2023-05-05T19:31:10.280Z,7.07
2023-05-05T19:34:12.311Z,6.53
2023-05-05T19:37:14.378Z,7.93
2023-05-05T19:40:16.385Z,8.30
2023-05-05T19:43:18.361Z,8.55
2023-05-05T19:46:20.811Z,7.93
2023-05-05T19:49:23.079Z,8.70
2023-05-05T19:52:25.133Z,9.55
2023-05-05T19:55:27.155Z,10.63
2023-05-05T19:58:29.146Z,13.45
2023-05-05T20:01:31.360Z,10.37
2023-05-05T20:04:33.513Z,13.45
2023-05-05T20:07:35.585Z,10.13
2023-05-05T20:10:37.623Z,11.65
2023-05-05T20:13:39.685Z,11.18
2023-05-05T20:16:42.096Z,10.83
2023-05-05T20:19:44.124Z,12.52
2023-05-05T20:22:46.785Z,15.55
2023-05-05T20:25:48.803Z,14.98
2023-05-05T20:28:50.918Z,14.50
2023-05-05T20:31:52.989Z,12.33
2023-05-05T20:34:55.010Z,11.63
2023-05-05T20:37:57.104Z,13.18
2023-05-05T20:40:59.348Z,11.80
2023-05-05T20:44:02.046Z,11.00
2023-05-05T20:47:04.395Z,10.83
2023-05-05T20:50:06.993Z,12.48
2023-05-05T20:53:09.874Z,11.43
2023-05-05T20:56:11.956Z,10.93
2023-05-05T20:59:13.957Z,10.82
2023-05-05T21:02:16.064Z,10.30
2023-05-05T21:05:18.140Z,10.07
2023-05-05T21:08:20.201Z,9.98
2023-05-05T21:11:22.181Z,10.07
2023-05-05T21:14:24.334Z,9.10
2023-05-05T21:17:27.193Z,8.80
2023-05-05T21:20:29.272Z,9.00
2023-05-05T21:23:31.375Z,8.93
2023-05-05T21:26:33.372Z,10.20
2023-05-05T21:29:37.785Z,12.18
2023-05-05T21:32:40.131Z,12.30
2023-05-05T21:35:42.278Z,12.50
2023-05-05T21:38:44.345Z,13.07
2023-05-05T21:41:46.453Z,13.88
2023-05-05T21:44:48.543Z,13.07
2023-05-05T21:47:50.925Z,12.83
2023-05-05T21:50:53.195Z,12.32
2023-05-05T21:53:55.168Z,13.32
2023-05-05T21:56:57.203Z,12.23
2023-05-05T22:00:00.381Z,12.27
2023-05-05T22:03:03.528Z,12.83
2023-05-05T22:06:05.734Z,11.98
2023-05-05T22:09:07.729Z,11.98
2023-05-05T22:12:09.801Z,11.32
2023-05-05T22:15:12.023Z,11.70
2023-05-05T22:18:14.252Z,10.83
2023-05-05T22:21:16.380Z,11.38
2023-05-05T22:24:18.394Z,11.50
2023-05-05T22:27:20.424Z,11.27
2023-05-05T22:30:22.439Z,12.50
2023-05-05T22:33:24.522Z,13.47
2023-05-05T22:36:27.623Z,13.30
2023-05-05T22:39:29.618Z,13.07
2023-05-05T22:42:31.660Z,13.70
2023-05-05T22:45:33.726Z,13.37
2023-05-05T22:48:36.009Z,13.70
2023-05-05T22:51:38.008Z,12.52
2023-05-05T22:54:40.050Z,13.45
2023-05-05T22:57:42.478Z,13.25
2023-05-05T23:00:44.448Z,13.73
2023-05-05T23:03:47.054Z,11.80
2023-05-05T23:06:49.142Z,12.38
2023-05-05T23:09:51.113Z,12.52
2023-05-05T23:12:53.528Z,12.85
2023-05-05T23:15:55.635Z,12.40
2023-05-05T23:18:57.659Z,12.43
2023-05-05T23:21:59.914Z,12.15
2023-05-05T23:25:01.927Z,11.93
2023-05-05T23:28:04.009Z,10.70
2023-05-05T23:31:06.061Z,11.10
2023-05-05T23:34:08.119Z,12.33
2023-05-05T23:37:10.130Z,12.35
2023-05-05T23:40:12.142Z,11.15
2023-05-05T23:43:14.203Z,10.93
2023-05-05T23:46:16.669Z,11.40
2023-05-05T23:49:18.702Z,10.80
2023-05-05T23:52:21.091Z,12.07
2023-05-05T23:55:23.215Z,11.20
2023-05-05T23:58:25.193Z,12.27
